Bratsk Airport
UIBB : now visible

Airfield :











YOU CAN JOIN US ON...

 
LOGIN :

Register | Disclaimer

   EN    FR    IT 

 









Legend :    VFR   Marginal VFR   IFR   Intensive IFR   Very Intensive IFR
Visi :
Ceiling :
>= 8 km
>= 3000ft
5 to 8 km
1000 to 3000 ft
1500m to 5 km
500 to 1000 ft
800 to 1500m
200 to 500 ft
< 800m
< 200 ft
Symbols :   Thunderstorms  Fog  Heavy snow  Heavy precipitations  Wind > 20 kt






- Airport Elevation : 1610 ft
- IATA code : BTK


UIBB - Bratsk

CURRENT METAR :
  • 142100Z AUTO 27005MPS 9999 // ///050/// M11/M14 Q1012 RMK QFE716/0955

EXPIRED METARs :
  • 142030Z AUTO 26005MPS 9999 // ///055/// M10/M13 Q1011 RMK QFE716/0954
  • 142000Z AUTO 27005MPS 9999 // ///019/// M11/M13 Q1011 RMK QFE716/0954
  • 141930Z AUTO 28006MPS 9999 // NSC M10/M13 Q1011 RMK QFE715/0954
  • 141900Z AUTO 29004MPS 9999 // ///021/// M10/M13 Q1010 RMK QFE715/0953
  • 141830Z AUTO 30005MPS 9999 // ///031/// M09/M12 Q1010 RMK QFE715/0953

TAF TAF UIBB
Valid from the 14 at 21:00 until the 15 at 21:00 UTC


142000Z 1421/1521 28006MPS 6000 -SHSN DRSN BKN016CB
TEMPO 1421/1512 1900 SHSN BLSN VV004



MET'MAP, your aeronautical weather chart ! - Copyright ORBIFLY December 2007 - Disclaimer

ORBIFLY MET'MAP TEAM :

Programming & Development : Alexandra Zaïnal
Concept & original design : Baudouin d'Aumeries
Assistance for programming : Marc-Olivier Méhu
Technical & hardware support : Manuel Goepfert

Contact : metmap@orbifly.com




SOURCES & CREDITS :

   NOAA       Earth
Advisory